Time;durP1;ratioP1;P1;durP2;ratioP2;P2;SDS_P1;SDS_P2;PMS_P1;PMS_P2;Temp;Humidity;BMP_temperature;BMP_pressure;BME280_temperature;BME280_humidity;BME280_pressure;Samples;Min_cycle;Max_cycle;Signal;HPM_P1;HPM_P2
2021/04/22 00:02:07;;;;;;;11.85;4.45;;;;;;;;;;5013591;28;20395;-64
2021/04/22 00:04:53;;;;;;;15.25;4.95;;;;;;;;;;5013437;28;20053;-63
2021/04/22 00:07:38;;;;;;;20.23;5.00;;;;;;;;;;5013348;28;20408;-63
2021/04/22 00:10:26;;;;;;;16.30;5.60;;;;;;;;;;5011736;28;20108;-63
2021/04/22 00:13:12;;;;;;;17.50;5.22;;;;;;;;;;5013280;28;20045;-63
2021/04/22 00:15:59;;;;;;;13.50;4.97;;;;;;;;;;5013145;28;20053;-63
2021/04/22 00:18:46;;;;;;;17.60;4.07;;;;;;;;;;5013304;28;20443;-63
2021/04/22 00:21:31;;;;;;;14.00;5.07;;;;;;;;;;4993264;28;20488;-63
2021/04/22 00:24:16;;;;;;;19.48;5.55;;;;;;;;;;4993405;28;20058;-63
2021/04/22 00:27:03;;;;;;;21.80;4.70;;;;;;;;;;4993536;28;20492;-63
2021/04/22 00:29:48;;;;;;;22.52;6.20;;;;;;;;;;4997980;28;20084;-63
2021/04/22 00:32:34;;;;;;;16.75;4.57;;;;;;;;;;5012949;28;20042;-63
2021/04/22 00:35:19;;;;;;;15.20;4.25;;;;;;;;;;5012947;28;20496;-63
2021/04/22 00:38:07;;;;;;;14.30;4.95;;;;;;;;;;5013022;28;20057;-63
2021/04/22 00:40:52;;;;;;;18.58;5.85;;;;;;;;;;5002048;28;20492;-63
2021/04/22 00:43:38;;;;;;;21.08;5.07;;;;;;;;;;4993205;28;20416;-63
2021/04/22 00:46:23;;;;;;;15.10;4.57;;;;;;;;;;4992538;28;20046;-63
2021/04/22 00:49:08;;;;;;;14.07;4.60;;;;;;;;;;4978637;28;20197;-64
2021/04/22 00:51:54;;;;;;;11.40;4.65;;;;;;;;;;5008905;28;20042;-63
2021/04/22 00:54:39;;;;;;;17.67;4.60;;;;;;;;;;5012756;28;20507;-63
2021/04/22 00:57:25;;;;;;;16.55;4.28;;;;;;;;;;5012617;28;20123;-63
2021/04/22 01:00:11;;;;;;;18.73;4.72;;;;;;;;;;5012359;28;20053;-63
2021/04/22 01:02:56;;;;;;;14.30;4.72;;;;;;;;;;4978483;28;20416;-63
2021/04/22 01:05:43;;;;;;;13.00;4.57;;;;;;;;;;4992900;28;20047;-63
2021/04/22 01:08:28;;;;;;;14.75;5.20;;;;;;;;;;4992944;28;20101;-63
2021/04/22 01:11:14;;;;;;;15.40;5.38;;;;;;;;;;4992854;28;20046;-63
2021/04/22 01:13:59;;;;;;;18.83;4.70;;;;;;;;;;4992692;28;20536;-64
2021/04/22 01:16:45;;;;;;;14.55;5.15;;;;;;;;;;4992839;28;20050;-63
2021/04/22 01:19:30;;;;;;;16.15;5.15;;;;;;;;;;4991978;28;20050;-64
2021/04/22 01:22:16;;;;;;;16.38;4.63;;;;;;;;;;4993045;28;20050;-63
2021/04/22 01:25:01;;;;;;;19.42;5.63;;;;;;;;;;4992811;28;20200;-63
2021/04/22 01:27:46;;;;;;;22.35;5.18;;;;;;;;;;4992665;28;20129;-63
2021/04/22 01:30:33;;;;;;;15.85;4.82;;;;;;;;;;4992404;28;20051;-63
2021/04/22 01:33:19;;;;;;;15.27;4.63;;;;;;;;;;5008480;28;20053;-64
2021/04/22 01:36:05;;;;;;;17.23;5.05;;;;;;;;;;5012282;28;20496;-63
2021/04/22 01:38:50;;;;;;;14.70;6.35;;;;;;;;;;5012323;28;20045;-62
2021/04/22 01:41:35;;;;;;;17.52;5.25;;;;;;;;;;5011157;28;20046;-63
2021/04/22 01:44:21;;;;;;;16.38;4.25;;;;;;;;;;5012007;28;20106;-63
2021/04/22 01:47:06;;;;;;;18.08;3.90;;;;;;;;;;5012102;28;20049;-63
2021/04/22 01:49:51;;;;;;;13.52;3.28;;;;;;;;;;5011767;28;20061;-63
2021/04/22 01:52:37;;;;;;;18.33;4.10;;;;;;;;;;5007300;28;20050;-63
2021/04/22 01:55:27;;;;;;;13.88;4.57;;;;;;;;;;4992546;28;20129;-63
2021/04/22 01:58:19;;;;;;;18.60;5.43;;;;;;;;;;4992590;28;20161;-62
2021/04/22 02:01:04;;;;;;;14.65;2.58;;;;;;;;;;4992251;28;20054;-63
2021/04/22 02:03:51;;;;;;;13.80;3.53;;;;;;;;;;5003442;28;20042;-63
2021/04/22 02:06:36;;;;;;;12.88;3.42;;;;;;;;;;5010763;28;20045;-64
2021/04/22 02:09:21;;;;;;;13.48;2.63;;;;;;;;;;5011795;28;20064;-63
2021/04/22 02:12:08;;;;;;;17.10;4.13;;;;;;;;;;5011988;28;20042;-63
2021/04/22 02:14:53;;;;;;;13.43;2.65;;;;;;;;;;4994179;28;20476;-63
2021/04/22 02:17:38;;;;;;;12.40;2.97;;;;;;;;;;4992454;28;20050;-63
2021/04/22 02:20:23;;;;;;;12.85;3.30;;;;;;;;;;4991918;28;20055;-63
2021/04/22 02:23:10;;;;;;;11.52;3.28;;;;;;;;;;4992420;28;20057;-62
2021/04/22 02:25:55;;;;;;;8.50;3.03;;;;;;;;;;5011858;28;20050;-63
2021/04/22 02:28:40;;;;;;;16.02;3.17;;;;;;;;;;5011713;28;20050;-63
2021/04/22 02:31:26;;;;;;;16.85;2.92;;;;;;;;;;5013986;28;20050;-63
2021/04/22 02:34:11;;;;;;;11.30;2.65;;;;;;;;;;5008988;28;20051;-64
2021/04/22 02:36:56;;;;;;;14.15;3.20;;;;;;;;;;4995581;28;20493;-63
2021/04/22 02:39:42;;;;;;;14.63;3.30;;;;;;;;;;4995148;28;20046;-63
2021/04/22 02:42:27;;;;;;;14.93;4.53;;;;;;;;;;4995676;28;20054;-63
2021/04/22 02:45:17;;;;;;;10.38;3.50;;;;;;;;;;5006686;28;20101;-63
2021/04/22 02:48:02;;;;;;;13.75;2.95;;;;;;;;;;5014820;28;20085;-64
2021/04/22 02:50:48;;;;;;;18.58;3.35;;;;;;;;;;5014985;28;20124;-63
2021/04/22 02:53:33;;;;;;;14.52;2.80;;;;;;;;;;5014876;28;20057;-63
2021/04/22 02:56:19;;;;;;;11.32;3.30;;;;;;;;;;4997472;28;20050;-63
2021/04/22 02:59:04;;;;;;;11.88;3.55;;;;;;;;;;4995325;28;20054;-64
2021/04/22 03:01:49;;;;;;;14.18;3.70;;;;;;;;;;4995009;28;20075;-63
2021/04/22 03:04:35;;;;;;;10.73;2.65;;;;;;;;;;4993966;28;20565;-63
2021/04/22 03:07:20;;;;;;;12.63;3.20;;;;;;;;;;5014546;28;20524;-63
2021/04/22 03:10:08;;;;;;;14.02;4.00;;;;;;;;;;5014403;28;20054;-63
2021/04/22 03:12:54;;;;;;;14.55;3.00;;;;;;;;;;5014397;28;20104;-63
2021/04/22 03:15:40;;;;;;;16.20;3.85;;;;;;;;;;5008243;28;20034;-64
2021/04/22 03:18:25;;;;;;;16.63;3.63;;;;;;;;;;4994982;28;20097;-64
2021/04/22 03:21:11;;;;;;;13.68;3.25;;;;;;;;;;4994473;28;20047;-63
2021/04/22 03:23:56;;;;;;;16.52;3.47;;;;;;;;;;4994866;28;20042;-63
2021/04/22 03:26:42;;;;;;;14.35;4.63;;;;;;;;;;5006020;28;20068;-63
2021/04/22 03:29:27;;;;;;;11.77;2.78;;;;;;;;;;5013998;28;20090;-63
2021/04/22 03:32:12;;;;;;;14.43;2.53;;;;;;;;;;5014430;28;20054;-64
2021/04/22 03:34:58;;;;;;;11.18;3.25;;;;;;;;;;5014137;28;20049;-64
2021/04/22 03:37:43;;;;;;;8.88;3.60;;;;;;;;;;4996735;28;20570;-63
2021/04/22 03:40:28;;;;;;;10.20;2.20;;;;;;;;;;4994497;28;20061;-64
2021/04/22 03:43:14;;;;;;;10.15;2.38;;;;;;;;;;4994360;28;20050;-63
2021/04/22 03:45:59;;;;;;;13.45;2.90;;;;;;;;;;4994238;28;20054;-63
2021/04/22 03:48:44;;;;;;;10.90;2.50;;;;;;;;;;5014081;28;20069;-63
2021/04/22 03:51:30;;;;;;;11.63;2.72;;;;;;;;;;5013618;28;20074;-63
2021/04/22 03:54:15;;;;;;;10.93;3.20;;;;;;;;;;5013710;28;20503;-62
2021/04/22 03:57:01;;;;;;;9.80;2.60;;;;;;;;;;5008085;28;20046;-63
2021/04/22 03:59:46;;;;;;;12.68;2.88;;;;;;;;;;4993793;28;20077;-64
2021/04/22 04:02:31;;;;;;;10.07;2.75;;;;;;;;;;4993926;28;20050;-63
2021/04/22 04:05:17;;;;;;;13.27;2.80;;;;;;;;;;4993971;28;20051;-63
2021/04/22 04:08:02;;;;;;;14.00;2.95;;;;;;;;;;5004915;28;20408;-63
2021/04/22 04:10:47;;;;;;;7.63;2.55;;;;;;;;;;5013423;28;20053;-63
2021/04/22 04:13:33;;;;;;;18.00;2.97;;;;;;;;;;5013388;28;20054;-63
2021/04/22 04:16:18;;;;;;;9.40;2.58;;;;;;;;;;5013219;28;20045;-63
2021/04/22 04:19:04;;;;;;;15.30;2.88;;;;;;;;;;5011512;28;20073;-63
2021/04/22 04:21:49;;;;;;;12.68;2.80;;;;;;;;;;5013060;28;20412;-64
2021/04/22 04:24:34;;;;;;;8.35;3.00;;;;;;;;;;5013193;28;20049;-63
2021/04/22 04:27:20;;;;;;;13.98;2.85;;;;;;;;;;5013183;28;20050;-62
2021/04/22 04:30:06;;;;;;;12.00;2.60;;;;;;;;;;4993168;28;20050;-63
2021/04/22 04:32:51;;;;;;;17.45;2.95;;;;;;;;;;4993531;28;20058;-63
2021/04/22 04:35:38;;;;;;;19.20;3.60;;;;;;;;;;4993415;28;20084;-63
2021/04/22 04:38:24;;;;;;;23.10;3.80;;;;;;;;;;4993552;28;20042;-63
2021/04/22 04:41:09;;;;;;;19.35;3.28;;;;;;;;;;4993153;28;20047;-62
2021/04/22 04:43:54;;;;;;;20.48;3.15;;;;;;;;;;4993154;28;20042;-63
2021/04/22 04:46:40;;;;;;;12.00;2.65;;;;;;;;;;4993304;28;20049;-62
2021/04/22 04:49:25;;;;;;;17.33;4.13;;;;;;;;;;5004092;28;20049;-63
2021/04/22 04:52:11;;;;;;;7.75;2.40;;;;;;;;;;5012665;28;20427;-63
2021/04/22 04:54:56;;;;;;;14.13;2.72;;;;;;;;;;5012366;28;20046;-63
2021/04/22 04:57:42;;;;;;;15.50;4.35;;;;;;;;;;5012704;28;20046;-63
2021/04/22 05:00:27;;;;;;;14.35;2.88;;;;;;;;;;4995594;28;20409;-63
2021/04/22 05:03:12;;;;;;;13.57;2.85;;;;;;;;;;4992949;28;20050;-64
2021/04/22 05:05:58;;;;;;;12.77;3.47;;;;;;;;;;4993115;28;20460;-65
2021/04/22 05:08:43;;;;;;;12.57;3.22;;;;;;;;;;4992845;28;20050;-64
2021/04/22 05:11:29;;;;;;;8.90;2.72;;;;;;;;;;4992838;28;20054;-65
2021/04/22 05:14:15;;;;;;;17.90;3.47;;;;;;;;;;4992874;28;20081;-64
2021/04/22 05:17:00;;;;;;;13.27;3.90;;;;;;;;;;4992956;28;20050;-64
2021/04/22 05:19:46;;;;;;;11.77;2.72;;;;;;;;;;4992771;28;20046;-64
2021/04/22 05:22:31;;;;;;;12.73;3.60;;;;;;;;;;4992893;28;20055;-64
2021/04/22 05:25:16;;;;;;;10.43;2.28;;;;;;;;;;4992753;28;20049;-65
2021/04/22 05:28:02;;;;;;;10.23;2.50;;;;;;;;;;4992841;28;20501;-65
2021/04/22 05:30:47;;;;;;;9.43;3.00;;;;;;;;;;5003222;28;20057;-64
2021/04/22 05:33:33;;;;;;;8.63;2.78;;;;;;;;;;5012244;28;20054;-64
2021/04/22 05:36:18;;;;;;;10.48;2.55;;;;;;;;;;5012243;28;20050;-64
2021/04/22 05:39:04;;;;;;;12.77;2.83;;;;;;;;;;5012084;28;20514;-64
2021/04/22 05:41:50;;;;;;;11.35;2.53;;;;;;;;;;4996352;28;20050;-65
2021/04/22 05:44:35;;;;;;;15.68;3.67;;;;;;;;;;5031982;22;20524;-64
2021/04/22 05:47:20;;;;;;;10.80;2.17;;;;;;;;;;5051655;28;20124;-64
2021/04/22 05:50:05;;;;;;;11.63;2.95;;;;;;;;;;5051554;28;20099;-64
2021/04/22 05:52:51;;;;;;;16.35;3.03;;;;;;;;;;5031802;28;20050;-64
2021/04/22 05:55:36;;;;;;;10.85;2.75;;;;;;;;;;5011916;28;20057;-65
2021/04/22 05:58:22;;;;;;;12.52;2.78;;;;;;;;;;5011999;28;20050;-65
2021/04/22 06:01:07;;;;;;;11.32;2.45;;;;;;;;;;5012786;28;20407;-65
2021/04/22 06:03:52;;;;;;;12.80;2.83;;;;;;;;;;5012047;28;20060;-64
2021/04/22 06:06:38;;;;;;;13.85;2.78;;;;;;;;;;5015904;28;20050;-64
2021/04/22 06:09:23;;;;;;;12.82;2.72;;;;;;;;;;5015625;28;20073;-64
2021/04/22 06:12:09;;;;;;;8.60;2.20;;;;;;;;;;5029266;28;20056;-65
2021/04/22 06:14:55;;;;;;;10.88;3.55;;;;;;;;;;5035411;28;20041;-65
2021/04/22 06:17:40;;;;;;;13.00;2.90;;;;;;;;;;5034456;28;20052;-64
2021/04/22 06:20:25;;;;;;;8.20;2.78;;;;;;;;;;5034274;28;20046;-64
2021/04/22 06:23:10;;;;;;;14.65;3.03;;;;;;;;;;5035287;28;20045;-64
2021/04/22 06:25:56;;;;;;;13.05;2.97;;;;;;;;;;5035125;28;20547;-64
2021/04/22 06:28:42;;;;;;;11.93;2.25;;;;;;;;;;5035140;28;20049;-64
2021/04/22 06:31:28;;;;;;;13.52;3.15;;;;;;;;;;5025000;28;20053;-64
2021/04/22 06:34:13;;;;;;;10.85;2.70;;;;;;;;;;5015296;28;20050;-64
2021/04/22 06:36:59;;;;;;;16.55;3.65;;;;;;;;;;5015192;28;20057;-64
2021/04/22 06:39:44;;;;;;;14.90;3.10;;;;;;;;;;5015001;28;20050;-64
2021/04/22 06:42:30;;;;;;;18.52;2.72;;;;;;;;;;5030415;28;20057;-64
2021/04/22 06:45:16;;;;;;;10.23;2.33;;;;;;;;;;5034880;28;20053;-64
2021/04/22 06:48:01;;;;;;;12.05;2.38;;;;;;;;;;5034743;28;20045;-64
2021/04/22 06:50:48;;;;;;;13.30;2.55;;;;;;;;;;5034496;28;20056;-65
2021/04/22 06:53:33;;;;;;;11.43;2.67;;;;;;;;;;5014799;28;20519;-64
2021/04/22 06:56:18;;;;;;;17.05;3.35;;;;;;;;;;5015071;28;20081;-64
2021/04/22 06:59:06;;;;;;;13.20;2.90;;;;;;;;;;5014850;28;20053;-64
2021/04/22 07:01:52;;;;;;;13.25;2.95;;;;;;;;;;5018663;28;20525;-64
2021/04/22 07:04:37;;;;;;;9.32;3.25;;;;;;;;;;5034548;28;20057;-64
2021/04/22 07:07:22;;;;;;;15.10;3.05;;;;;;;;;;5034511;28;20136;-64
2021/04/22 07:10:25;;;;;;;10.07;3.25;;;;;;;;;;5034052;28;20079;-64
2021/04/22 07:13:10;;;;;;;12.00;3.10;;;;;;;;;;5021909;28;20054;-64
2021/04/22 07:15:56;;;;;;;15.43;3.65;;;;;;;;;;5013808;28;20100;-65
2021/04/22 07:18:45;;;;;;;11.23;3.22;;;;;;;;;;5014554;28;20050;-64
2021/04/22 07:21:31;;;;;;;10.30;3.60;;;;;;;;;;5014157;28;20049;-64
2021/04/22 07:24:32;;;;;;;9.63;3.20;;;;;;;;;;5014200;28;20405;-64
2021/04/22 07:27:37;;;;;;;12.70;3.00;;;;;;;;;;5013426;28;20107;-64
2021/04/22 07:30:22;;;;;;;6.72;2.53;;;;;;;;;;5014098;28;20230;-64
2021/04/22 07:33:08;;;;;;;8.52;2.33;;;;;;;;;;5020323;28;20087;-65
2021/04/22 07:35:53;;;;;;;5.50;1.55;;;;;;;;;;5033981;28;20048;-65
2021/04/22 07:38:39;;;;;;;10.40;2.30;;;;;;;;;;5034150;28;20136;-65
2021/04/22 07:41:24;;;;;;;7.70;3.28;;;;;;;;;;5033561;28;20457;-64
2021/04/22 07:44:09;;;;;;;9.15;2.28;;;;;;;;;;5021568;28;20045;-64
2021/04/22 07:46:55;;;;;;;11.82;2.05;;;;;;;;;;5014082;28;20049;-65
2021/04/22 07:49:42;;;;;;;11.60;2.38;;;;;;;;;;5012668;28;20057;-65
2021/04/22 07:52:27;;;;;;;9.65;2.40;;;;;;;;;;5013050;28;20057;-65
2021/04/22 07:55:13;;;;;;;8.55;2.63;;;;;;;;;;5031113;28;20053;-65
2021/04/22 07:57:59;;;;;;;11.82;3.35;;;;;;;;;;5033567;28;20041;-65
2021/04/22 08:00:44;;;;;;;7.85;2.10;;;;;;;;;;5046166;28;20073;-65
2021/04/22 08:03:30;;;;;;;6.57;2.15;;;;;;;;;;5032427;28;20053;-65
2021/04/22 08:06:15;;;;;;;6.03;2.75;;;;;;;;;;5013633;28;20054;-66
2021/04/22 08:09:01;;;;;;;7.68;2.13;;;;;;;;;;5018666;28;20187;-65
2021/04/22 08:11:46;;;;;;;9.23;2.40;;;;;;;;;;5029880;28;20046;-65
2021/04/22 08:14:31;;;;;;;7.80;2.03;;;;;;;;;;5013335;28;20053;-65
2021/04/22 08:17:17;;;;;;;6.95;2.25;;;;;;;;;;5023445;28;20099;-65
2021/04/22 08:20:05;;;;;;;8.15;2.25;;;;;;;;;;5032659;28;20045;-66
2021/04/22 08:22:51;;;;;;;11.18;2.05;;;;;;;;;;5024483;28;20049;-65
2021/04/22 08:25:38;;;;;;;8.68;2.30;;;;;;;;;;5021455;28;20046;-65
2021/04/22 08:28:23;;;;;;;11.88;2.50;;;;;;;;;;5031514;28;20053;-65
2021/04/22 08:31:22;;;;;;;6.55;2.42;;;;;;;;;;5017731;28;20412;-65
2021/04/22 08:34:08;;;;;;;7.95;2.33;;;;;;;;;;5036900;28;20069;-65
2021/04/22 08:36:53;;;;;;;7.78;2.95;;;;;;;;;;5032180;28;20049;-65
2021/04/22 08:39:38;;;;;;;13.23;2.97;;;;;;;;;;5021726;28;20115;-65
2021/04/22 08:42:24;;;;;;;7.28;2.70;;;;;;;;;;5027832;28;20122;-65
2021/04/22 08:45:10;;;;;;;8.77;2.45;;;;;;;;;;5016640;28;20585;-66
2021/04/22 08:47:55;;;;;;;7.85;2.33;;;;;;;;;;5020618;28;20050;-65
2021/04/22 08:50:46;;;;;;;7.53;2.55;;;;;;;;;;5028487;28;20056;-66
2021/04/22 08:53:32;;;;;;;12.00;2.20;;;;;;;;;;5015438;28;20447;-65
2021/04/22 08:56:20;;;;;;;9.05;2.58;;;;;;;;;;5026818;28;20049;-65
2021/04/22 08:59:06;;;;;;;11.13;2.35;;;;;;;;;;5015845;28;20278;-66
2021/04/22 09:01:51;;;;;;;6.53;2.05;;;;;;;;;;5021084;28;20513;-66
2021/04/22 09:04:37;;;;;;;7.30;1.80;;;;;;;;;;5018613;28;20054;-65
2021/04/22 09:07:22;;;;;;;4.72;1.40;;;;;;;;;;5024846;28;20046;-65
2021/04/22 09:10:08;;;;;;;4.38;1.83;;;;;;;;;;5024936;28;20093;-66
2021/04/22 09:12:57;;;;;;;7.43;1.95;;;;;;;;;;5015425;28;20049;-66
2021/04/22 09:15:42;;;;;;;8.25;2.40;;;;;;;;;;5023922;28;20054;-65
2021/04/22 09:18:28;;;;;;;9.60;2.03;;;;;;;;;;5028716;28;20496;-66
2021/04/22 09:21:23;;;;;;;3.90;1.60;;;;;;;;;;5025646;28;20424;-66
2021/04/22 09:24:13;;;;;;;7.25;1.80;;;;;;;;;;5023475;28;20050;-64
2021/04/22 09:27:02;;;;;;;6.15;1.30;;;;;;;;;;5015832;28;20084;-66
2021/04/22 09:29:53;;;;;;;7.38;2.50;;;;;;;;;;5020737;28;20462;-65
2021/04/22 09:32:38;;;;;;;7.00;1.50;;;;;;;;;;5028291;28;20045;-65
2021/04/22 09:35:26;;;;;;;4.20;1.60;;;;;;;;;;5012758;28;20064;-65
2021/04/22 09:38:13;;;;;;;4.22;2.10;;;;;;;;;;5024154;28;20111;-65
2021/04/22 09:41:28;;;;;;;6.68;1.85;;;;;;;;;;5017600;28;20069;-65
2021/04/22 09:44:14;;;;;;;6.38;1.55;;;;;;;;;;5016751;28;20128;-65
2021/04/22 09:47:09;;;;;;;5.22;1.35;;;;;;;;;;5030814;28;20050;-66
2021/04/22 09:50:01;;;;;;;6.88;1.70;;;;;;;;;;5026863;28;20077;-66
2021/04/22 09:52:49;;;;;;;10.07;2.27;;;;;;;;;;5026767;28;20041;-66
2021/04/22 09:55:35;;;;;;;7.25;1.77;;;;;;;;;;5019674;28;20787;-66
2021/04/22 09:58:27;;;;;;;7.68;2.10;;;;;;;;;;5029629;28;20491;-66
2021/04/22 10:01:20;;;;;;;5.38;1.88;;;;;;;;;;5020758;28;20511;-66
2021/04/22 10:04:05;;;;;;;7.93;2.42;;;;;;;;;;5022411;28;20492;-66
2021/04/22 10:06:51;;;;;;;7.72;1.92;;;;;;;;;;5030655;28;20037;-65
2021/04/22 10:09:36;;;;;;;7.30;1.35;;;;;;;;;;5024004;28;20073;-65
2021/04/22 10:12:22;;;;;;;5.30;1.83;;;;;;;;;;5020242;28;20050;-66
2021/04/22 10:15:11;;;;;;;4.35;1.80;;;;;;;;;;5020277;28;20049;-66
2021/04/22 10:17:57;;;;;;;5.78;1.70;;;;;;;;;;5028485;28;20041;-66
2021/04/22 10:20:42;;;;;;;8.02;2.20;;;;;;;;;;5018553;28;20046;-66
2021/04/22 10:23:29;;;;;;;6.40;2.50;;;;;;;;;;5027313;28;20054;-66
2021/04/22 10:26:20;;;;;;;7.22;2.13;;;;;;;;;;5027403;28;20056;-70
2021/04/22 10:29:07;;;;;;;3.25;1.63;;;;;;;;;;5017258;28;20131;-66
2021/04/22 10:31:52;;;;;;;5.13;1.52;;;;;;;;;;5023707;28;20050;-66
2021/04/22 10:34:37;;;;;;;9.00;2.38;;;;;;;;;;5030937;28;20484;-66
2021/04/22 10:37:23;;;;;;;9.13;2.22;;;;;;;;;;5033611;28;20506;-66
2021/04/22 10:40:10;;;;;;;10.80;3.05;;;;;;;;;;5034445;28;20050;-66
2021/04/22 10:42:55;;;;;;;5.78;1.65;;;;;;;;;;5018038;28;20045;-66
2021/04/22 10:45:41;;;;;;;8.23;1.98;;;;;;;;;;5024819;28;20050;-66
2021/04/22 10:48:26;;;;;;;8.75;2.10;;;;;;;;;;5016727;28;20046;-66
2021/04/22 10:51:12;;;;;;;7.05;2.22;;;;;;;;;;5032938;28;20132;-66
2021/04/22 10:53:57;;;;;;;4.38;1.55;;;;;;;;;;5022802;28;20085;-65
2021/04/22 10:56:42;;;;;;;6.82;2.47;;;;;;;;;;5030918;28;20053;-65
2021/04/22 10:59:28;;;;;;;9.68;2.22;;;;;;;;;;5025345;28;20050;-65
2021/04/22 11:02:17;;;;;;;6.50;2.20;;;;;;;;;;5028479;28;20132;-65
2021/04/22 11:05:03;;;;;;;6.18;1.67;;;;;;;;;;5018683;28;20041;-65
2021/04/22 11:07:57;;;;;;;4.18;1.85;;;;;;;;;;5025869;28;20045;-65
2021/04/22 11:10:43;;;;;;;5.05;2.47;;;;;;;;;;5017574;28;20042;-66
2021/04/22 11:13:31;;;;;;;8.32;1.50;;;;;;;;;;5026116;28;20046;-66
2021/04/22 11:16:17;;;;;;;9.30;2.55;;;;;;;;;;5028102;28;20045;-65
2021/04/22 11:19:13;;;;;;;9.80;2.50;;;;;;;;;;5019543;28;20397;-66
2021/04/22 11:22:00;;;;;;;7.47;1.80;;;;;;;;;;5025881;28;20392;-66
2021/04/22 11:24:51;;;;;;;7.57;2.85;;;;;;;;;;5019197;28;20033;-66
2021/04/22 11:27:48;;;;;;;6.20;2.15;;;;;;;;;;5022257;28;20055;-66
2021/04/22 11:30:35;;;;;;;6.65;2.25;;;;;;;;;;5029657;28;20053;-65
2021/04/22 11:33:27;;;;;;;5.57;1.60;;;;;;;;;;5020525;28;20480;-65
2021/04/22 11:36:13;;;;;;;6.20;1.85;;;;;;;;;;5019706;28;20516;-65
2021/04/22 11:39:03;;;;;;;4.53;1.48;;;;;;;;;;5014254;28;20041;-65
2021/04/22 11:41:54;;;;;;;6.75;2.17;;;;;;;;;;5024095;28;20128;-65
2021/04/22 11:44:42;;;;;;;8.20;1.45;;;;;;;;;;5016804;28;20046;-65
2021/04/22 11:47:28;;;;;;;4.03;1.38;;;;;;;;;;5025394;28;20054;-65
2021/04/22 11:50:15;;;;;;;5.60;1.73;;;;;;;;;;5016994;28;20522;-65
2021/04/22 11:53:01;;;;;;;9.73;2.70;;;;;;;;;;5012295;28;20037;-65
2021/04/22 11:55:48;;;;;;;8.77;2.55;;;;;;;;;;5022062;28;20053;-65
2021/04/22 11:58:34;;;;;;;9.23;2.00;;;;;;;;;;5016779;28;20228;-65
2021/04/22 12:01:19;;;;;;;8.52;2.00;;;;;;;;;;5022928;28;20132;-65
2021/04/22 12:04:05;;;;;;;7.80;2.17;;;;;;;;;;5020274;28;20042;-65
2021/04/22 12:06:53;;;;;;;5.68;1.98;;;;;;;;;;5032264;28;20045;-65
2021/04/22 12:09:39;;;;;;;9.30;2.95;;;;;;;;;;5060105;22;20510;-63
2021/04/22 12:12:26;;;;;;;6.30;1.80;;;;;;;;;;5068182;28;20056;-64
2021/04/22 12:15:11;;;;;;;6.75;1.75;;;;;;;;;;5072660;28;20143;-62
2021/04/22 12:17:57;;;;;;;7.00;2.05;;;;;;;;;;5060706;28;20122;-64
2021/04/22 12:20:42;;;;;;;12.30;3.65;;;;;;;;;;5036082;28;20041;-63
2021/04/22 12:23:31;;;;;;;7.18;1.73;;;;;;;;;;5040619;28;20049;-63
2021/04/22 12:26:21;;;;;;;5.28;2.50;;;;;;;;;;5037917;28;20475;-63
2021/04/22 12:29:07;;;;;;;7.30;2.00;;;;;;;;;;5037139;28;20053;-63
2021/04/22 12:31:53;;;;;;;6.72;2.00;;;;;;;;;;5051249;28;20052;-63
2021/04/22 12:34:39;;;;;;;7.18;2.00;;;;;;;;;;5034760;28;20041;-63
2021/04/22 12:37:25;;;;;;;11.80;2.75;;;;;;;;;;5039586;28;20044;-62
2021/04/22 12:40:10;;;;;;;12.50;2.75;;;;;;;;;;5038374;28;20042;-63
2021/04/22 12:43:01;;;;;;;8.45;2.65;;;;;;;;;;5036937;28;20605;-63
2021/04/22 12:45:47;;;;;;;5.55;2.30;;;;;;;;;;5041793;28;20089;-63
2021/04/22 12:48:32;;;;;;;10.23;1.90;;;;;;;;;;5048023;28;20552;-62
2021/04/22 12:51:17;;;;;;;6.68;2.45;;;;;;;;;;5036194;28;20533;-63
2021/04/22 12:54:03;;;;;;;11.85;2.15;;;;;;;;;;5044733;28;20076;-62
2021/04/22 12:56:48;;;;;;;7.38;2.35;;;;;;;;;;5035490;28;20561;-63
2021/04/22 12:59:34;;;;;;;7.00;1.95;;;;;;;;;;5043065;28;20060;-63
2021/04/22 13:02:19;;;;;;;9.32;2.13;;;;;;;;;;5045694;28;20538;-64
2021/04/22 13:05:11;;;;;;;3.92;1.67;;;;;;;;;;5051893;28;20041;-64
2021/04/22 13:07:56;;;;;;;7.43;2.33;;;;;;;;;;5040350;28;20053;-63
2021/04/22 13:10:42;;;;;;;8.30;2.40;;;;;;;;;;5033028;28;20120;-63
2021/04/22 13:13:28;;;;;;;11.68;2.25;;;;;;;;;;5045284;28;20064;-63
2021/04/22 13:16:14;;;;;;;8.68;2.22;;;;;;;;;;5037750;28;20064;-63
2021/04/22 13:19:08;;;;;;;8.10;2.63;;;;;;;;;;5042443;28;20487;-63
2021/04/22 13:21:53;;;;;;;4.93;2.15;;;;;;;;;;5051402;28;20080;-63
2021/04/22 13:24:41;;;;;;;7.95;1.98;;;;;;;;;;5049439;28;20045;-63
2021/04/22 13:27:28;;;;;;;5.70;1.83;;;;;;;;;;5039115;28;20410;-63
2021/04/22 13:30:14;;;;;;;7.53;1.95;;;;;;;;;;5043938;28;20123;-63
2021/04/22 13:33:05;;;;;;;8.13;2.00;;;;;;;;;;5031655;28;20049;-63
2021/04/22 13:35:50;;;;;;;5.07;2.22;;;;;;;;;;5042358;28;20438;-63
2021/04/22 13:38:35;;;;;;;5.78;1.83;;;;;;;;;;5034748;28;20045;-64
2021/04/22 13:41:21;;;;;;;11.05;2.35;;;;;;;;;;5035105;28;20037;-63
2021/04/22 13:44:10;;;;;;;5.53;1.90;;;;;;;;;;5019700;28;20596;-63
2021/04/22 13:46:59;;;;;;;6.22;1.83;;;;;;;;;;5048067;28;20045;-63
2021/04/22 13:49:45;;;;;;;6.70;1.90;;;;;;;;;;5031346;28;20045;-64
2021/04/22 13:52:31;;;;;;;8.05;2.10;;;;;;;;;;5047389;28;20102;-64
2021/04/22 13:55:16;;;;;;;6.57;2.13;;;;;;;;;;5050995;28;20094;-63
2021/04/22 13:58:02;;;;;;;7.25;2.35;;;;;;;;;;5038848;28;20069;-63
2021/04/22 14:00:47;;;;;;;10.07;2.05;;;;;;;;;;5046720;28;20045;-63
2021/04/22 14:03:34;;;;;;;12.05;2.20;;;;;;;;;;5046423;28;20417;-63
2021/04/22 14:06:19;;;;;;;6.72;2.00;;;;;;;;;;5051201;28;20045;-63
2021/04/22 14:09:08;;;;;;;11.80;2.45;;;;;;;;;;5035587;28;20079;-63
2021/04/22 14:11:53;;;;;;;8.50;2.58;;;;;;;;;;5048873;28;20049;-64
2021/04/22 14:14:38;;;;;;;7.88;1.95;;;;;;;;;;5033994;28;20033;-63
2021/04/22 14:17:24;;;;;;;11.57;2.97;;;;;;;;;;5044812;28;20072;-63
2021/04/22 14:20:09;;;;;;;8.45;2.10;;;;;;;;;;5044399;28;20037;-63
2021/04/22 14:22:55;;;;;;;5.95;1.80;;;;;;;;;;5032320;28;20041;-64
2021/04/22 14:25:40;;;;;;;6.07;2.25;;;;;;;;;;5043684;28;20053;-64
2021/04/22 14:28:25;;;;;;;8.05;1.90;;;;;;;;;;5054795;28;20128;-64
2021/04/22 14:31:11;;;;;;;5.13;1.80;;;;;;;;;;5040073;28;20053;-64
2021/04/22 14:33:56;;;;;;;4.75;1.70;;;;;;;;;;5054557;28;20040;-63
2021/04/22 14:36:42;;;;;;;7.47;2.28;;;;;;;;;;5037986;28;20049;-63
2021/04/22 14:39:27;;;;;;;7.45;1.92;;;;;;;;;;5046572;28;20041;-64
2021/04/22 14:42:12;;;;;;;5.97;1.77;;;;;;;;;;5047681;28;20119;-64
2021/04/22 14:44:58;;;;;;;9.35;2.05;;;;;;;;;;5038405;28;20041;-64
2021/04/22 14:47:44;;;;;;;8.98;1.55;;;;;;;;;;5044384;28;20081;-64
2021/04/22 14:50:29;;;;;;;9.10;1.92;;;;;;;;;;5035400;28;20048;-64
2021/04/22 14:53:15;;;;;;;6.85;2.42;;;;;;;;;;5042778;28;20048;-64
2021/04/22 14:56:02;;;;;;;5.13;1.58;;;;;;;;;;5042048;28;20132;-64
2021/04/22 14:58:47;;;;;;;7.45;2.92;;;;;;;;;;5036003;28;20057;-64
2021/04/22 15:01:32;;;;;;;8.82;2.15;;;;;;;;;;5039032;28;20046;-64
2021/04/22 15:04:17;;;;;;;7.75;2.50;;;;;;;;;;5048992;28;20415;-64
2021/04/22 15:07:03;;;;;;;7.28;2.45;;;;;;;;;;5038293;28;20049;-63
2021/04/22 15:09:49;;;;;;;6.68;1.90;;;;;;;;;;5048776;28;20123;-63
2021/04/22 15:12:34;;;;;;;6.25;2.22;;;;;;;;;;5053747;28;20053;-64
2021/04/22 15:15:19;;;;;;;8.10;2.63;;;;;;;;;;5054258;28;20075;-63
2021/04/22 15:18:05;;;;;;;8.75;2.10;;;;;;;;;;5053698;28;20092;-64
2021/04/22 15:20:50;;;;;;;5.95;2.75;;;;;;;;;;5052845;28;20515;-63
2021/04/22 15:23:36;;;;;;;7.40;2.17;;;;;;;;;;5054058;28;20086;-63
2021/04/22 15:26:21;;;;;;;8.57;2.75;;;;;;;;;;5053643;28;20041;-64
2021/04/22 15:29:07;;;;;;;6.35;2.42;;;;;;;;;;5053967;28;20041;-64
2021/04/22 15:31:56;;;;;;;6.75;2.05;;;;;;;;;;5053159;28;20106;-63
2021/04/22 15:34:42;;;;;;;6.55;2.78;;;;;;;;;;5053735;28;20514;-64
2021/04/22 15:37:27;;;;;;;5.47;1.85;;;;;;;;;;5053133;28;20123;-63
2021/04/22 15:40:13;;;;;;;3.60;1.98;;;;;;;;;;5053382;28;20041;-63
2021/04/22 15:42:59;;;;;;;7.32;2.50;;;;;;;;;;5052656;28;20041;-64
2021/04/22 15:45:52;;;;;;;4.68;1.40;;;;;;;;;;5038601;28;20041;-64
2021/04/22 15:48:37;;;;;;;14.95;2.67;;;;;;;;;;5053326;28;20413;-64
2021/04/22 15:51:23;;;;;;;5.43;2.38;;;;;;;;;;5038018;28;20040;-64
2021/04/22 15:54:09;;;;;;;9.02;2.38;;;;;;;;;;5038373;28;20383;-64
2021/04/22 15:56:55;;;;;;;5.43;2.10;;;;;;;;;;5053178;28;20049;-64
2021/04/22 15:59:40;;;;;;;8.32;2.63;;;;;;;;;;5052831;28;20049;-63
2021/04/22 16:02:25;;;;;;;10.88;3.53;;;;;;;;;;5035515;28;20142;-63
2021/04/22 16:05:10;;;;;;;7.93;2.70;;;;;;;;;;5050994;28;20045;-64
2021/04/22 16:07:56;;;;;;;6.47;2.50;;;;;;;;;;5050870;28;20052;-64
2021/04/22 16:10:41;;;;;;;6.07;2.67;;;;;;;;;;5051005;28;20078;-64
2021/04/22 16:13:27;;;;;;;9.25;3.97;;;;;;;;;;5049617;28;20045;-64
2021/04/22 16:16:12;;;;;;;10.95;3.50;;;;;;;;;;5049511;28;20056;-64
2021/04/22 16:18:58;;;;;;;8.07;3.30;;;;;;;;;;5050160;28;20049;-64
2021/04/22 16:21:43;;;;;;;8.68;3.30;;;;;;;;;;5050830;28;20094;-63
2021/04/22 16:24:28;;;;;;;7.68;3.17;;;;;;;;;;5050687;28;20045;-64
2021/04/22 16:27:13;;;;;;;10.25;3.30;;;;;;;;;;5050534;28;20144;-64
2021/04/22 16:29:59;;;;;;;7.70;2.65;;;;;;;;;;5050394;28;20041;-64